Terminal Aerodrome Forecast
Issued by NWS Pocatello, ID

Home | Current Version | Previous Version | Text Only | Print | Product List | Glossary On
Versions: 1 2 3 4 5 6 7 8 9 10 11 12 13
000
FTUS45 KPIH 301700
TAFIDA
TAF
KIDA 301720Z 3018/3118 22015G25KT P6SM VCTS BKN120CB OVC200
     FM310200 20011KT P6SM VCSH BKN070
     FM311700 21015G25KT P6SM BKN120=

USA.gov is the U.S. government's official web portal to all federal, state and local government web resources and services.